Time;durP1;ratioP1;P1;durP2;ratioP2;P2;SDS_P1;SDS_P2;PMS_P1;PMS_P2;Temp;Humidity;BMP_temperature;BMP_pressure;BME280_temperature;BME280_humidity;BME280_pressure;Samples;Min_cycle;Max_cycle;Signal;HPM_P1;HPM_P2
2022/02/24 00:01:26;;;;;;;;;;;22.30;99.90;;;;;;5013869;28;19976;-73
2022/02/24 00:03:53;;;;;;;;;;;22.40;99.90;;;;;;5013741;28;19916;-72
2022/02/24 00:06:22;;;;;;;;;;;22.30;99.90;;;;;;5013737;28;20364;-72
2022/02/24 00:08:48;;;;;;;;;;;22.30;99.90;;;;;;5013428;28;20295;-72
2022/02/24 00:11:15;;;;;;;;;;;22.40;99.90;;;;;;5013540;28;19929;-71
2022/02/24 00:13:42;;;;;;;;;;;22.40;99.90;;;;;;5013644;28;19920;-71
2022/02/24 00:16:08;;;;;;;;;;;22.50;99.90;;;;;;5013762;28;20376;-73
2022/02/24 00:18:35;;;;;;;;;;;22.60;99.90;;;;;;5013561;28;19916;-73
2022/02/24 00:21:01;;;;;;;;;;;22.70;99.90;;;;;;5013249;28;19917;-74
2022/02/24 00:23:28;;;;;;;;;;;22.70;99.90;;;;;;4996051;28;20319;-71
2022/02/24 00:25:55;;;;;;;;;;;22.50;99.90;;;;;;5013468;28;20000;-72
2022/02/24 00:28:21;;;;;;;;;;;22.50;99.90;;;;;;5012360;28;19964;-72
2022/02/24 00:30:48;;;;;;;;;;;22.60;99.90;;;;;;5013176;28;19960;-73
2022/02/24 00:33:15;;;;;;;;;;;22.50;99.90;;;;;;5013444;28;19909;-73
2022/02/24 00:35:42;;;;;;;;;;;22.60;99.90;;;;;;5013508;28;19914;-73
2022/02/24 00:38:08;;;;;;;;;;;22.40;99.90;;;;;;5013167;28;19913;-73
2022/02/24 00:40:35;;;;;;;;;;;22.30;99.90;;;;;;5013345;28;19971;-73
2022/02/24 00:43:02;;;;;;;;;;;22.30;99.90;;;;;;5012904;28;20000;-74
2022/02/24 00:45:30;;;;;;;;;;;22.30;99.90;;;;;;5013081;28;19916;-72
2022/02/24 00:47:56;;;;;;;;;;;22.50;99.90;;;;;;5012952;28;20000;-72
2022/02/24 00:50:23;;;;;;;;;;;22.60;99.90;;;;;;5012085;28;20000;-73
2022/02/24 00:52:49;;;;;;;;;;;22.70;99.90;;;;;;5012864;28;19949;-72
2022/02/24 00:55:16;;;;;;;;;;;22.70;99.90;;;;;;5012872;28;19921;-72
2022/02/24 00:57:43;;;;;;;;;;;22.60;99.90;;;;;;5013111;28;19913;-72
2022/02/24 01:00:10;;;;;;;;;;;22.70;99.90;;;;;;5012952;28;19914;-73
2022/02/24 01:02:36;;;;;;;;;;;22.60;99.90;;;;;;5012272;28;19937;-73
2022/02/24 01:05:03;;;;;;;;;;;22.50;99.90;;;;;;5012764;28;19913;-72
2022/02/24 01:07:30;;;;;;;;;;;22.70;99.90;;;;;;5013099;28;20337;-72
2022/02/24 01:09:57;;;;;;;;;;;22.80;99.90;;;;;;5012808;28;20290;-73
2022/02/24 01:12:24;;;;;;;;;;;23.00;99.90;;;;;;5024510;28;19917;-74
2022/02/24 01:14:50;;;;;;;;;;;23.00;99.90;;;;;;5011258;28;20020;-73
2022/02/24 01:17:17;;;;;;;;;;;23.20;99.90;;;;;;5015304;28;19921;-73
2022/02/24 01:19:44;;;;;;;;;;;23.30;99.90;;;;;;5023892;28;20028;-73
2022/02/24 01:22:10;;;;;;;;;;;23.30;99.90;;;;;;5012180;28;19937;-73
2022/02/24 01:24:39;;;;;;;;;;;23.20;99.90;;;;;;5016004;28;19913;-72
2022/02/24 01:27:05;;;;;;;;;;;23.20;99.90;;;;;;5029064;28;19967;-73
2022/02/24 01:29:32;;;;;;;;;;;23.30;99.90;;;;;;5015342;28;19914;-75
2022/02/24 01:31:58;;;;;;;;;;;23.20;99.90;;;;;;5024630;28;20411;-73
2022/02/24 01:34:27;;;;;;;;;;;23.40;99.90;;;;;;5012209;28;19913;-74
2022/02/24 01:36:54;;;;;;;;;;;23.40;99.90;;;;;;5012218;28;19920;-74
2022/02/24 01:39:21;;;;;;;;;;;23.20;99.90;;;;;;5014882;28;20355;-72
2022/02/24 01:41:48;;;;;;;;;;;23.20;99.90;;;;;;5015272;28;19929;-72
2022/02/24 01:44:15;;;;;;;;;;;23.30;99.90;;;;;;5015426;28;19914;-73
2022/02/24 01:46:42;;;;;;;;;;;23.30;99.90;;;;;;5015637;28;19917;-73
2022/02/24 01:49:10;;;;;;;;;;;23.40;99.90;;;;;;5016147;28;19909;-73
2022/02/24 01:51:37;;;;;;;;;;;23.60;99.90;;;;;;5016132;28;19909;-73
2022/02/24 01:54:04;;;;;;;;;;;23.60;99.90;;;;;;5015823;28;19918;-73
2022/02/24 01:56:32;;;;;;;;;;;23.90;99.90;;;;;;5016138;28;19913;-73
2022/02/24 01:58:58;;;;;;;;;;;23.90;99.90;;;;;;5015878;28;19948;-72
2022/02/24 02:01:25;;;;;;;;;;;24.00;99.90;;;;;;5016013;28;19913;-73
2022/02/24 02:03:54;;;;;;;;;;;24.10;99.90;;;;;;5015413;28;19945;-73
2022/02/24 02:06:21;;;;;;;;;;;24.20;99.90;;;;;;5015537;28;19948;-73
2022/02/24 02:08:48;;;;;;;;;;;24.40;99.90;;;;;;5015250;28;19921;-73
2022/02/24 02:11:16;;;;;;;;;;;24.40;99.90;;;;;;5014850;28;19913;-73
2022/02/24 02:13:42;;;;;;;;;;;24.50;99.90;;;;;;5015016;28;19920;-73
2022/02/24 02:16:10;;;;;;;;;;;24.60;99.90;;;;;;5015620;28;20040;-74
2022/02/24 02:18:38;;;;;;;;;;;24.70;99.90;;;;;;5015385;28;19925;-74
2022/02/24 02:21:05;;;;;;;;;;;24.70;99.90;;;;;;5015633;28;19925;-74
2022/02/24 02:23:31;;;;;;;;;;;24.90;99.90;;;;;;5015439;28;19913;-74
2022/02/24 02:25:58;;;;;;;;;;;25.10;99.90;;;;;;5015552;28;20284;-74
2022/02/24 02:28:25;;;;;;;;;;;25.00;99.90;;;;;;5015353;28;19922;-74
2022/02/24 02:30:51;;;;;;;;;;;25.20;99.90;;;;;;5014827;28;19913;-74
2022/02/24 02:33:18;;;;;;;;;;;25.20;99.90;;;;;;5015135;28;19936;-74
2022/02/24 02:35:45;;;;;;;;;;;25.20;99.90;;;;;;5015292;28;19914;-75
2022/02/24 02:38:12;;;;;;;;;;;25.20;99.90;;;;;;5015026;28;20376;-75
2022/02/24 02:40:39;;;;;;;;;;;25.10;99.90;;;;;;5014784;28;19914;-75
2022/02/24 02:43:06;;;;;;;;;;;25.10;99.90;;;;;;5015174;28;19913;-74
2022/02/24 02:45:33;;;;;;;;;;;25.20;99.90;;;;;;5014938;28;19920;-74
2022/02/24 02:48:01;;;;;;;;;;;25.20;99.90;;;;;;5014825;28;19913;-74
2022/02/24 02:50:30;;;;;;;;;;;25.20;99.90;;;;;;5013535;28;19913;-75
2022/02/24 02:52:57;;;;;;;;;;;25.30;99.90;;;;;;5014843;28;20009;-74
2022/02/24 02:55:23;;;;;;;;;;;25.50;99.90;;;;;;5014643;28;19917;-74
2022/02/24 02:57:50;;;;;;;;;;;25.60;99.90;;;;;;5014818;28;20351;-74
2022/02/24 03:00:17;;;;;;;;;;;25.70;99.90;;;;;;5014603;28;19917;-74
2022/02/24 03:02:44;;;;;;;;;;;25.80;99.90;;;;;;5014167;28;20309;-74
2022/02/24 03:05:10;;;;;;;;;;;26.00;99.90;;;;;;5014665;28;19917;-74
2022/02/24 03:07:37;;;;;;;;;;;26.00;99.90;;;;;;5014738;28;19913;-74
2022/02/24 03:10:05;;;;;;;;;;;26.00;99.90;;;;;;5013972;28;19917;-74
2022/02/24 03:12:40;;;;;;;;;;;26.00;99.90;;;;;;5014052;28;20009;-75
2022/02/24 03:15:13;;;;;;;;;;;26.00;99.90;;;;;;5013258;28;19921;-75
2022/02/24 03:17:41;;;;;;;;;;;25.80;99.90;;;;;;5013411;28;19945;-75
2022/02/24 03:20:08;;;;;;;;;;;25.90;99.90;;;;;;5014157;28;19936;-75
2022/02/24 03:22:35;;;;;;;;;;;25.80;99.90;;;;;;5014614;28;20364;-75
2022/02/24 03:25:02;;;;;;;;;;;25.70;99.90;;;;;;5013915;28;19914;-74
2022/02/24 03:27:29;;;;;;;;;;;25.60;99.90;;;;;;5013517;28;20267;-74
2022/02/24 03:29:55;;;;;;;;;;;25.60;99.90;;;;;;5013790;28;19972;-74
2022/02/24 03:32:22;;;;;;;;;;;25.40;99.90;;;;;;5014452;28;19959;-74
2022/02/24 03:34:49;;;;;;;;;;;25.30;99.90;;;;;;5014185;28;19914;-75
2022/02/24 03:37:16;;;;;;;;;;;25.10;99.90;;;;;;5013790;28;19920;-73
2022/02/24 03:39:42;;;;;;;;;;;25.10;99.90;;;;;;5013529;28;20383;-74
2022/02/24 03:42:09;;;;;;;;;;;25.20;99.90;;;;;;5013944;28;19924;-73
2022/02/24 03:44:36;;;;;;;;;;;25.20;99.90;;;;;;5013465;28;20008;-74
2022/02/24 03:47:03;;;;;;;;;;;25.30;99.90;;;;;;4996800;28;19917;-76
2022/02/24 03:49:29;;;;;;;;;;;25.30;99.90;;;;;;5013362;28;19948;-75
2022/02/24 03:51:56;;;;;;;;;;;25.30;99.90;;;;;;5013645;28;20355;-74
2022/02/24 03:54:23;;;;;;;;;;;25.30;99.90;;;;;;5013292;28;19920;-74
2022/02/24 03:56:49;;;;;;;;;;;25.30;99.90;;;;;;4994121;28;19914;-73
2022/02/24 03:59:16;;;;;;;;;;;25.50;99.90;;;;;;4998502;28;19928;-75
2022/02/24 04:01:43;;;;;;;;;;;25.50;99.90;;;;;;5012908;28;19921;-74
2022/02/24 04:04:09;;;;;;;;;;;25.60;99.90;;;;;;5012462;28;19913;-74
2022/02/24 04:06:36;;;;;;;;;;;25.60;99.90;;;;;;5013475;28;19921;-73
2022/02/24 04:09:02;;;;;;;;;;;25.60;99.90;;;;;;5012392;28;19962;-75
2022/02/24 04:11:29;;;;;;;;;;;25.50;99.90;;;;;;5012175;28;19921;-74
2022/02/24 04:13:56;;;;;;;;;;;25.50;99.90;;;;;;5012700;28;19914;-73
2022/02/24 04:16:22;;;;;;;;;;;25.50;99.90;;;;;;5013097;28;20001;-74
2022/02/24 04:18:49;;;;;;;;;;;25.50;99.90;;;;;;5012637;28;19932;-73
2022/02/24 04:21:16;;;;;;;;;;;25.40;99.90;;;;;;5012303;28;19917;-74
2022/02/24 04:23:42;;;;;;;;;;;25.30;99.90;;;;;;5011910;28;19913;-73
2022/02/24 04:26:09;;;;;;;;;;;25.30;99.90;;;;;;5012409;28;19920;-73
2022/02/24 04:28:36;;;;;;;;;;;25.30;99.90;;;;;;5012130;28;19920;-73
2022/02/24 04:31:02;;;;;;;;;;;25.20;99.90;;;;;;5012817;28;20008;-73
2022/02/24 04:33:29;;;;;;;;;;;25.20;99.90;;;;;;5011648;28;19976;-74
2022/02/24 04:35:56;;;;;;;;;;;25.10;99.90;;;;;;4995144;28;19913;-75
2022/02/24 04:38:22;;;;;;;;;;;25.10;99.90;;;;;;5011762;28;19921;-74
2022/02/24 04:40:49;;;;;;;;;;;25.10;99.90;;;;;;5011567;28;20008;-74
2022/02/24 04:43:16;;;;;;;;;;;25.20;99.90;;;;;;5011552;28;19924;-74
2022/02/24 04:45:43;;;;;;;;;;;25.10;99.90;;;;;;5011716;28;19960;-73
2022/02/24 04:48:10;;;;;;;;;;;25.10;99.90;;;;;;5011307;28;19920;-74
2022/02/24 04:50:38;;;;;;;;;;;25.10;99.90;;;;;;5012291;28;19921;-73
2022/02/24 04:53:05;;;;;;;;;;;25.10;99.90;;;;;;5012828;28;20406;-73
2022/02/24 04:55:31;;;;;;;;;;;25.00;99.90;;;;;;5010371;28;19922;-74
2022/02/24 04:57:58;;;;;;;;;;;25.00;99.90;;;;;;5012173;28;19960;-74
2022/02/24 05:00:25;;;;;;;;;;;25.00;99.90;;;;;;5013001;28;19937;-74
2022/02/24 05:02:51;;;;;;;;;;;25.10;99.90;;;;;;5011242;28;19921;-74
2022/02/24 05:05:18;;;;;;;;;;;25.10;99.90;;;;;;5012672;28;19913;-74
2022/02/24 05:07:45;;;;;;;;;;;25.10;99.90;;;;;;5011817;28;19979;-74
2022/02/24 05:10:11;;;;;;;;;;;25.10;99.90;;;;;;5013023;28;20419;-74
2022/02/24 05:12:38;;;;;;;;;;;25.10;99.90;;;;;;5011062;28;19913;-74
2022/02/24 05:15:05;;;;;;;;;;;25.00;99.90;;;;;;5012428;28;19916;-74
2022/02/24 05:17:32;;;;;;;;;;;25.10;99.90;;;;;;5011132;28;19918;-75
2022/02/24 05:20:00;;;;;;;;;;;25.00;99.90;;;;;;5012345;28;19913;-75
2022/02/24 05:22:27;;;;;;;;;;;25.00;99.90;;;;;;5011803;28;19921;-75
2022/02/24 05:24:53;;;;;;;;;;;25.00;99.90;;;;;;5012385;28;19914;-75
2022/02/24 05:27:20;;;;;;;;;;;24.90;99.90;;;;;;4994525;28;20383;-75
2022/02/24 05:29:47;;;;;;;;;;;24.90;99.90;;;;;;5011157;28;19913;-74
2022/02/24 05:32:14;;;;;;;;;;;24.60;99.90;;;;;;5011678;28;19917;-74
2022/02/24 05:34:40;;;;;;;;;;;24.50;99.90;;;;;;5011941;28;19939;-73
2022/02/24 05:37:07;;;;;;;;;;;24.30;99.90;;;;;;5011910;28;19925;-71
2022/02/24 05:39:34;;;;;;;;;;;24.10;99.90;;;;;;5012719;28;19949;-73
2022/02/24 05:42:00;;;;;;;;;;;23.90;99.90;;;;;;5011802;28;19921;-72
2022/02/24 05:44:27;;;;;;;;;;;23.80;99.90;;;;;;5011632;28;20414;-72
2022/02/24 05:46:54;;;;;;;;;;;23.80;99.90;;;;;;5010530;28;19921;-73
2022/02/24 05:49:21;;;;;;;;;;;23.80;99.90;;;;;;5011881;28;19957;-73
2022/02/24 05:51:48;;;;;;;;;;;23.70;99.90;;;;;;5009878;28;19924;-73
2022/02/24 05:54:15;;;;;;;;;;;23.60;99.90;;;;;;5009844;28;19918;-74
2022/02/24 05:56:42;;;;;;;;;;;23.60;99.90;;;;;;5008705;28;19918;-73
2022/02/24 05:59:09;;;;;;;;;;;23.60;99.90;;;;;;5010372;28;20276;-73
2022/02/24 06:01:35;;;;;;;;;;;23.70;99.90;;;;;;5009200;28;19988;-72
2022/02/24 06:04:02;;;;;;;;;;;23.50;99.90;;;;;;5009462;28;19917;-73
2022/02/24 06:06:29;;;;;;;;;;;23.60;99.90;;;;;;4996085;28;19921;-72
2022/02/24 06:08:56;;;;;;;;;;;23.60;99.90;;;;;;5008958;28;19913;-73
2022/02/24 06:11:22;;;;;;;;;;;23.60;99.90;;;;;;5009304;28;19940;-73
2022/02/24 06:13:49;;;;;;;;;;;23.60;99.90;;;;;;5010294;28;19944;-74
2022/02/24 06:16:15;;;;;;;;;;;23.50;99.90;;;;;;5009264;28;19913;-73
2022/02/24 06:18:42;;;;;;;;;;;23.40;99.90;;;;;;5008865;28;20236;-73
2022/02/24 06:21:09;;;;;;;;;;;23.50;99.90;;;;;;5008181;28;19921;-73
2022/02/24 06:23:35;;;;;;;;;;;23.40;99.90;;;;;;5009417;28;19921;-73
2022/02/24 06:26:02;;;;;;;;;;;23.30;99.90;;;;;;5011736;28;19913;-72
2022/02/24 06:28:29;;;;;;;;;;;23.20;99.90;;;;;;5012578;28;19921;-73
2022/02/24 06:30:55;;;;;;;;;;;23.30;99.90;;;;;;5012030;28;20004;-72
2022/02/24 06:33:22;;;;;;;;;;;23.30;99.90;;;;;;5012397;28;20348;-74
2022/02/24 06:35:49;;;;;;;;;;;23.30;99.90;;;;;;5012548;28;19945;-74
2022/02/24 06:38:15;;;;;;;;;;;23.30;99.90;;;;;;5012880;28;20269;-73
2022/02/24 06:40:42;;;;;;;;;;;23.30;99.90;;;;;;4999276;28;19917;-73
2022/02/24 06:43:08;;;;;;;;;;;23.30;99.90;;;;;;5012692;28;20186;-74
2022/02/24 06:45:35;;;;;;;;;;;23.20;99.90;;;;;;5012260;28;19920;-73
2022/02/24 06:48:02;;;;;;;;;;;23.20;99.90;;;;;;5013163;28;19909;-74
2022/02/24 06:50:29;;;;;;;;;;;23.30;99.90;;;;;;5012739;28;19914;-74
2022/02/24 06:52:55;;;;;;;;;;;23.30;99.90;;;;;;5011493;28;19913;-74
2022/02/24 06:55:22;;;;;;;;;;;23.30;99.90;;;;;;5012324;28;20344;-72
2022/02/24 06:57:52;;;;;;;;;;;23.30;99.90;;;;;;5011793;28;20371;-74
2022/02/24 07:00:19;;;;;;;;;;;23.40;99.90;;;;;;5012298;28;19964;-74
2022/02/24 07:02:45;;;;;;;;;;;23.40;99.90;;;;;;5011865;28;19972;-72
2022/02/24 07:05:12;;;;;;;;;;;23.40;99.90;;;;;;5011881;28;19914;-72
2022/02/24 07:07:39;;;;;;;;;;;23.40;99.90;;;;;;5012218;28;19917;-73
2022/02/24 07:10:10;;;;;;;;;;;23.40;99.90;;;;;;5011775;28;19917;-74
2022/02/24 07:12:37;;;;;;;;;;;23.40;99.90;;;;;;5011997;28;19918;-73
2022/02/24 07:15:04;;;;;;;;;;;23.40;99.90;;;;;;5012547;28;19921;-74
2022/02/24 07:17:31;;;;;;;;;;;23.40;99.90;;;;;;5012904;28;20318;-74
2022/02/24 07:19:58;;;;;;;;;;;23.40;99.90;;;;;;5012588;28;19913;-73
2022/02/24 07:22:25;;;;;;;;;;;23.40;99.90;;;;;;5011944;28;20345;-74
2022/02/24 07:24:52;;;;;;;;;;;23.40;99.90;;;;;;5012170;28;20003;-74
2022/02/24 07:27:18;;;;;;;;;;;23.40;99.90;;;;;;5012401;28;19996;-73
2022/02/24 07:29:45;;;;;;;;;;;23.40;99.90;;;;;;4994520;28;19918;-74
2022/02/24 07:32:11;;;;;;;;;;;23.40;99.90;;;;;;5011921;28;20360;-74
2022/02/24 07:34:38;;;;;;;;;;;23.40;99.90;;;;;;5010317;28;20068;-74
2022/02/24 07:37:05;;;;;;;;;;;23.40;99.90;;;;;;5011102;28;20047;-74
2022/02/24 07:39:31;;;;;;;;;;;23.50;99.90;;;;;;5012016;28;19956;-74
2022/02/24 07:41:58;;;;;;;;;;;23.50;99.90;;;;;;5011819;28;20906;-74
2022/02/24 07:44:25;;;;;;;;;;;23.50;99.90;;;;;;5010737;28;20653;-74
2022/02/24 07:46:51;;;;;;;;;;;23.50;99.90;;;;;;5011656;28;19913;-74
2022/02/24 07:49:18;;;;;;;;;;;23.50;99.90;;;;;;5011856;28;19917;-75
2022/02/24 07:51:48;;;;;;;;;;;23.50;99.90;;;;;;5011335;28;20031;-75
2022/02/24 07:54:15;;;;;;;;;;;23.50;99.90;;;;;;5010905;28;19920;-74
2022/02/24 07:56:41;;;;;;;;;;;23.50;99.90;;;;;;5010941;28;20482;-75
2022/02/24 07:59:08;;;;;;;;;;;23.40;99.90;;;;;;5011210;28;19909;-75
2022/02/24 08:01:35;;;;;;;;;;;23.50;99.90;;;;;;5010978;28;19922;-74
2022/02/24 08:04:01;;;;;;;;;;;23.50;99.90;;;;;;5011512;28;19921;-74
2022/02/24 08:06:28;;;;;;;;;;;23.50;99.90;;;;;;5012940;28;20288;-74
2022/02/24 08:08:54;;;;;;;;;;;23.40;99.90;;;;;;5012761;28;19914;-74
2022/02/24 08:11:21;;;;;;;;;;;23.40;99.90;;;;;;5013475;28;19909;-72
2022/02/24 08:13:48;;;;;;;;;;;23.40;99.90;;;;;;5013404;28;19921;-73
2022/02/24 08:16:15;;;;;;;;;;;23.40;99.90;;;;;;5013015;28;20233;-73
2022/02/24 08:18:41;;;;;;;;;;;23.40;99.90;;;;;;5013287;28;19921;-73
2022/02/24 08:21:08;;;;;;;;;;;23.30;99.90;;;;;;5012967;28;19918;-73
2022/02/24 08:23:34;;;;;;;;;;;23.20;99.90;;;;;;5013004;28;20292;-73
2022/02/24 08:26:01;;;;;;;;;;;23.20;99.90;;;;;;4994684;28;20344;-73
2022/02/24 08:28:28;;;;;;;;;;;23.10;99.90;;;;;;5013251;28;20422;-71
2022/02/24 08:30:55;;;;;;;;;;;23.00;99.90;;;;;;5013107;28;19910;-73
2022/02/24 08:33:21;;;;;;;;;;;22.90;99.90;;;;;;5012989;28;19914;-73
2022/02/24 08:35:48;;;;;;;;;;;22.80;99.90;;;;;;5013340;28;20008;-73
2022/02/24 08:38:15;;;;;;;;;;;22.80;99.90;;;;;;5012930;28;19967;-73
2022/02/24 08:40:41;;;;;;;;;;;22.80;99.90;;;;;;4994607;28;19920;-72
2022/02/24 08:43:08;;;;;;;;;;;22.80;99.90;;;;;;5012869;28;19925;-74
2022/02/24 08:45:35;;;;;;;;;;;22.80;99.90;;;;;;5012522;28;20371;-73
2022/02/24 08:48:03;;;;;;;;;;;22.80;99.90;;;;;;5011984;28;19914;-73
2022/02/24 08:50:30;;;;;;;;;;;22.80;99.90;;;;;;5012782;28;19921;-73
2022/02/24 08:52:57;;;;;;;;;;;22.80;99.90;;;;;;5008140;28;19913;-74
2022/02/24 08:55:24;;;;;;;;;;;22.80;99.90;;;;;;5012957;28;19948;-74
2022/02/24 08:57:51;;;;;;;;;;;22.90;99.90;;;;;;5012614;28;19914;-73
2022/02/24 09:00:18;;;;;;;;;;;22.90;99.90;;;;;;4976397;28;20007;-74
2022/02/24 09:02:45;;;;;;;;;;;22.90;99.90;;;;;;5008522;28;19928;-73
2022/02/24 09:05:13;;;;;;;;;;;22.90;99.90;;;;;;5012270;28;19926;-73
2022/02/24 09:07:40;;;;;;;;;;;22.80;99.90;;;;;;5012740;28;19913;-73
2022/02/24 09:10:06;;;;;;;;;;;22.80;99.90;;;;;;5012236;28;19920;-72
2022/02/24 09:12:33;;;;;;;;;;;22.80;99.90;;;;;;5011872;28;19913;-72
2022/02/24 09:15:00;;;;;;;;;;;22.80;99.90;;;;;;5012450;28;19909;-72
2022/02/24 09:17:28;;;;;;;;;;;22.80;99.90;;;;;;5012096;28;19919;-73
2022/02/24 09:19:55;;;;;;;;;;;22.80;99.90;;;;;;5011761;28;19960;-73
2022/02/24 09:22:22;;;;;;;;;;;22.80;99.90;;;;;;5012730;28;20344;-73
2022/02/24 09:24:48;;;;;;;;;;;22.80;99.90;;;;;;5012456;28;19914;-73
2022/02/24 09:27:15;;;;;;;;;;;22.70;99.90;;;;;;5012424;28;19980;-74
2022/02/24 09:29:41;;;;;;;;;;;22.60;99.90;;;;;;5012438;28;19933;-75
2022/02/24 09:32:08;;;;;;;;;;;22.50;99.90;;;;;;5012471;28;19967;-73
2022/02/24 09:34:35;;;;;;;;;;;22.50;99.90;;;;;;5012068;28;19921;-74
2022/02/24 09:37:02;;;;;;;;;;;22.50;99.90;;;;;;5012357;28;19913;-73
2022/02/24 09:39:29;;;;;;;;;;;22.50;99.90;;;;;;4995891;28;20368;-73
2022/02/24 09:41:55;;;;;;;;;;;22.50;99.90;;;;;;4992956;28;20371;-72
2022/02/24 09:44:22;;;;;;;;;;;22.50;99.90;;;;;;5001922;28;20391;-72
2022/02/24 09:46:51;;;;;;;;;;;22.60;99.90;;;;;;5011514;28;19914;-72
2022/02/24 09:49:19;;;;;;;;;;;22.50;99.90;;;;;;5012333;28;19922;-72
2022/02/24 09:51:46;;;;;;;;;;;22.60;99.90;;;;;;5012398;28;19956;-73
2022/02/24 09:54:12;;;;;;;;;;;22.50;99.90;;;;;;5011723;28;19920;-73
2022/02/24 09:56:39;;;;;;;;;;;22.50;99.90;;;;;;5011634;28;19956;-72
2022/02/24 09:59:06;;;;;;;;;;;22.60;99.90;;;;;;5012783;28;19909;-73
2022/02/24 10:01:33;;;;;;;;;;;22.50;99.90;;;;;;5015572;28;19925;-73
2022/02/24 10:04:01;;;;;;;;;;;22.40;99.90;;;;;;5015332;28;19983;-73
2022/02/24 10:06:38;;;;;;;;;;;22.30;99.90;;;;;;5015559;28;20272;-73
2022/02/24 10:09:07;;;;;;;;;;;22.30;99.90;;;;;;5016161;28;19913;-73
2022/02/24 10:11:34;;;;;;;;;;;22.20;99.90;;;;;;5015265;28;19918;-73
2022/02/24 10:14:01;;;;;;;;;;;22.30;99.90;;;;;;5015571;28;19913;-74
2022/02/24 10:16:29;;;;;;;;;;;22.20;99.90;;;;;;5015212;28;19909;-73
2022/02/24 10:18:56;;;;;;;;;;;22.30;99.90;;;;;;5015806;28;19987;-73
2022/02/24 10:21:23;;;;;;;;;;;22.20;99.90;;;;;;5015574;28;19920;-72
2022/02/24 10:23:51;;;;;;;;;;;22.20;99.90;;;;;;5014783;28;20364;-73
2022/02/24 10:26:18;;;;;;;;;;;22.20;99.90;;;;;;5014880;28;19916;-73
2022/02/24 10:28:46;;;;;;;;;;;22.20;99.90;;;;;;5014723;28;19914;-73
2022/02/24 10:31:18;;;;;;;;;;;22.20;99.90;;;;;;5015136;28;19917;-73
2022/02/24 10:33:47;;;;;;;;;;;22.20;99.90;;;;;;5015536;28;19909;-73
2022/02/24 10:36:16;;;;;;;;;;;22.20;99.90;;;;;;5015613;28;20407;-73
2022/02/24 10:39:00;;;;;;;;;;;22.10;99.90;;;;;;5014828;28;19910;-73
2022/02/24 10:41:28;;;;;;;;;;;22.10;99.90;;;;;;5015325;28;19944;-73
2022/02/24 10:44:10;;;;;;;;;;;22.10;99.90;;;;;;5015290;28;19917;-72
2022/02/24 10:46:37;;;;;;;;;;;22.10;99.90;;;;;;5015183;28;20375;-72
2022/02/24 10:49:04;;;;;;;;;;;22.10;99.90;;;;;;5015315;28;19917;-74
2022/02/24 10:51:32;;;;;;;;;;;22.10;99.90;;;;;;5015469;28;19924;-73
2022/02/24 10:54:08;;;;;;;;;;;22.10;99.90;;;;;;5015349;28;20387;-72
2022/02/24 10:56:36;;;;;;;;;;;22.10;99.90;;;;;;5015686;28;19975;-72
2022/02/24 10:59:03;;;;;;;;;;;22.10;99.90;;;;;;5015479;28;20418;-72
2022/02/24 11:01:30;;;;;;;;;;;22.10;99.90;;;;;;5014639;28;19914;-72
2022/02/24 11:04:04;;;;;;;;;;;22.10;99.90;;;;;;5014980;28;19910;-72
2022/02/24 11:06:36;;;;;;;;;;;22.10;99.90;;;;;;5015022;28;20371;-72
2022/02/24 11:09:07;;;;;;;;;;;22.00;99.90;;;;;;5014989;28;20289;-71
2022/02/24 11:11:35;;;;;;;;;;;22.10;99.90;;;;;;5013846;28;20371;-72
2022/02/24 11:14:05;;;;;;;;;;;22.00;99.90;;;;;;5014856;28;19915;-72
2022/02/24 11:16:32;;;;;;;;;;;21.90;99.90;;;;;;5014169;28;19909;-72
2022/02/24 11:18:59;;;;;;;;;;;21.80;99.90;;;;;;5014772;28;20267;-73
2022/02/24 11:21:27;;;;;;;;;;;21.80;99.90;;;;;;5014510;28;19920;-73
2022/02/24 11:23:55;;;;;;;;;;;21.70;99.90;;;;;;5014627;28;19917;-72
2022/02/24 11:26:22;;;;;;;;;;;21.70;99.90;;;;;;5014667;28;20320;-72
2022/02/24 11:28:58;;;;;;;;;;;21.70;99.90;;;;;;5014490;28;20318;-73
2022/02/24 11:31:27;;;;;;;;;;;21.70;99.90;;;;;;5014045;28;20374;-72
2022/02/24 11:33:54;;;;;;;;;;;21.70;99.90;;;;;;5014646;28;19920;-72
2022/02/24 11:36:21;;;;;;;;;;;21.70;99.90;;;;;;5014623;28;19945;-72
2022/02/24 11:39:11;;;;;;;;;;;21.60;99.90;;;;;;5014107;28;19910;-72
2022/02/24 11:41:50;;;;;;;;;;;21.60;99.90;;;;;;5014363;28;19956;-73
2022/02/24 11:44:35;;;;;;;;;;;21.60;99.90;;;;;;5014333;28;19965;-73
2022/02/24 11:47:06;;;;;;;;;;;21.60;99.90;;;;;;5013425;28;20021;-72
2022/02/24 11:49:51;;;;;;;;;;;21.70;99.90;;;;;;5014131;28;19932;-72
2022/02/24 11:52:21;;;;;;;;;;;21.70;99.90;;;;;;5014396;28;19909;-73
2022/02/24 11:54:48;;;;;;;;;;;21.70;99.90;;;;;;5013998;28;20348;-73
2022/02/24 11:57:27;;;;;;;;;;;21.70;99.90;;;;;;5014109;28;20000;-72
2022/02/24 11:59:54;;;;;;;;;;;21.70;99.90;;;;;;5013418;28;20364;-73
2022/02/24 12:02:20;;;;;;;;;;;21.70;99.90;;;;;;5014163;28;19992;-73
2022/02/24 12:04:47;;;;;;;;;;;21.70;99.90;;;;;;5013753;28;19925;-73
2022/02/24 12:07:15;;;;;;;;;;;21.70;99.90;;;;;;5013581;28;19929;-74
2022/02/24 12:09:42;;;;;;;;;;;21.80;99.90;;;;;;5012199;28;19976;-73
2022/02/24 12:12:29;;;;;;;;;;;21.80;99.90;;;;;;5011476;28;19956;-73
2022/02/24 12:15:01;;;;;;;;;;;21.80;99.90;;;;;;5013082;28;20348;-73
2022/02/24 12:17:29;;;;;;;;;;;21.80;99.90;;;;;;5013836;28;19910;-74
2022/02/24 12:19:56;;;;;;;;;;;21.90;99.90;;;;;;5013802;28;19909;-73
2022/02/24 12:22:22;;;;;;;;;;;21.90;99.90;;;;;;5013068;28;19921;-73
2022/02/24 12:24:49;;;;;;;;;;;21.90;99.90;;;;;;5012818;28;19914;-74
2022/02/24 12:27:22;;;;;;;;;;;21.90;99.90;;;;;;5012927;28;19960;-73
2022/02/24 12:29:54;;;;;;;;;;;22.00;99.90;;;;;;5013005;28;19921;-74
2022/02/24 12:32:20;;;;;;;;;;;22.00;99.90;;;;;;5013667;28;19992;-72
2022/02/24 12:34:47;;;;;;;;;;;21.90;99.90;;;;;;5013025;28;19916;-74
2022/02/24 12:37:14;;;;;;;;;;;21.90;99.90;;;;;;5012917;28;19960;-73
2022/02/24 12:39:41;;;;;;;;;;;21.90;99.90;;;;;;5012561;28;19914;-72
2022/02/24 12:42:09;;;;;;;;;;;21.90;99.90;;;;;;5012964;28;20327;-73
2022/02/24 12:44:36;;;;;;;;;;;21.90;99.90;;;;;;5013260;28;19941;-73
2022/02/24 12:47:03;;;;;;;;;;;22.00;99.90;;;;;;5011890;28;20409;-72
2022/02/24 12:49:43;;;;;;;;;;;22.00;99.90;;;;;;5012959;28;20046;-72
2022/02/24 12:52:09;;;;;;;;;;;22.00;99.90;;;;;;5010797;28;19925;-73
2022/02/24 12:54:36;;;;;;;;;;;22.00;99.90;;;;;;5012446;28;20287;-74
2022/02/24 12:57:03;;;;;;;;;;;22.00;99.90;;;;;;5012650;28;19913;-74
2022/02/24 12:59:30;;;;;;;;;;;22.00;99.90;;;;;;5012282;28;19921;-74
2022/02/24 13:01:57;;;;;;;;;;;22.00;99.90;;;;;;5011907;28;19948;-73
2022/02/24 13:04:23;;;;;;;;;;;21.80;99.90;;;;;;5012059;28;19925;-73
2022/02/24 13:06:53;;;;;;;;;;;21.50;99.90;;;;;;5011613;28;20220;-74
2022/02/24 13:12:08;;;;;;;;;;;20.90;99.90;;;;;;5012691;28;20059;-73
2022/02/24 13:14:38;;;;;;;;;;;21.00;99.90;;;;;;5012940;28;19910;-73
2022/02/24 13:17:08;;;;;;;;;;;20.90;99.90;;;;;;5012849;28;20011;-74
2022/02/24 13:19:36;;;;;;;;;;;20.80;99.90;;;;;;5013139;28;19914;-74
2022/02/24 13:22:04;;;;;;;;;;;20.80;99.90;;;;;;5012916;28;20271;-74
2022/02/24 13:24:33;;;;;;;;;;;21.00;99.90;;;;;;5012527;28;19936;-74
2022/02/24 13:27:00;;;;;;;;;;;21.00;99.90;;;;;;5012704;28;19936;-74
2022/02/24 13:29:26;;;;;;;;;;;21.00;99.90;;;;;;4994753;28;20291;-72
2022/02/24 13:32:11;;;;;;;;;;;21.00;99.90;;;;;;5012888;28;20001;-73
2022/02/24 13:34:38;;;;;;;;;;;21.10;99.90;;;;;;5014112;28;19941;-72
2022/02/24 13:37:06;;;;;;;;;;;21.20;99.90;;;;;;5016792;28;19914;-73
2022/02/24 13:39:36;;;;;;;;;;;21.20;99.90;;;;;;5016166;28;19921;-73
2022/02/24 13:42:04;;;;;;;;;;;21.30;99.90;;;;;;5016532;28;19918;-73
2022/02/24 13:44:43;;;;;;;;;;;21.30;99.90;;;;;;5016659;28;19913;-73
2022/02/24 13:47:11;;;;;;;;;;;21.30;99.90;;;;;;5016693;28;19921;-73
2022/02/24 13:49:43;;;;;;;;;;;21.30;99.90;;;;;;5016750;28;19910;-72
2022/02/24 13:52:28;;;;;;;;;;;21.30;99.90;;;;;;5016854;28;19919;-73
2022/02/24 13:54:59;;;;;;;;;;;21.30;99.90;;;;;;5015977;28;19916;-73
2022/02/24 13:57:26;;;;;;;;;;;21.40;99.90;;;;;;5016224;28;19925;-72
2022/02/24 14:00:06;;;;;;;;;;;21.40;99.90;;;;;;5014597;28;19960;-72
2022/02/24 14:02:33;;;;;;;;;;;21.40;99.90;;;;;;5015940;28;19918;-73
2022/02/24 14:05:05;;;;;;;;;;;21.50;99.90;;;;;;5015921;28;19909;-73
2022/02/24 14:07:32;;;;;;;;;;;21.50;99.90;;;;;;5016002;28;19917;-73
2022/02/24 14:10:04;;;;;;;;;;;21.50;99.90;;;;;;5015318;28;19921;-73
2022/02/24 14:12:31;;;;;;;;;;;21.50;99.90;;;;;;5016127;28;20307;-74
2022/02/24 14:14:57;;;;;;;;;;;21.60;99.90;;;;;;5015607;28;20474;-73
2022/02/24 14:17:24;;;;;;;;;;;21.70;99.90;;;;;;5015787;28;20383;-73
2022/02/24 14:19:51;;;;;;;;;;;21.70;99.90;;;;;;5015592;28;19968;-73
2022/02/24 14:22:18;;;;;;;;;;;21.70;99.90;;;;;;5015996;28;20322;-72